Disclaimer

Please do not use the information listed here in-flight or in-navigation, as they are not provided to us by the airports but are provided by volunteers, so they might be outdated.

Search


Regions


Airport information page

Radio informations:
Tower (TWR) - 118.1 MHz
Automatic Terminal Information Service (ATIS) - 128.65 MHz

Airport informations:
Latitude: 62° 33' 37.34" N
Longitude: 006° 06' 36.59" E
Elevation: 69 feet - 21 meters
Operating hours: Remarks
Operating agency: Civil government, landing fees and diplomatic clearance may be required
Timezone: UTC+1(+2DT) - Last Sunday in March to last Sunday in October
Fuel: Jet A1, without icing nhibitor.

100/130 MIL Spec, low lead, aviation gasoline (BLUE)

Runway information:
07/25 - 7592 x 148 feet< - >2314 x 45 meters

Recent METARs:
ENAL 151750Z 12018KT CAVOK 01/M08 Q1021
ENAL 151820Z 12019KT CAVOK 01/M08 Q1020
ENAL 151850Z 12019KT CAVOK 01/M08 Q1020

Airport on the map: